createdAt,value
2018-05-14T00:00:43.356Z,93379.47
2018-05-14T00:03:10.977Z,93378.05
2018-05-14T00:05:38.581Z,93373.72
2018-05-14T00:08:06.251Z,93376.48
2018-05-14T00:10:33.879Z,93380.77
2018-05-14T00:13:01.579Z,93374.66
2018-05-14T00:15:29.241Z,93377.39
2018-05-14T00:17:56.879Z,93375.44
2018-05-14T00:20:24.511Z,93378.16
2018-05-14T00:22:52.218Z,93375.56
2018-05-14T00:25:19.839Z,93371.24
2018-05-14T00:27:47.576Z,93374.12
2018-05-14T00:30:15.268Z,93373.70
2018-05-14T00:32:42.866Z,93367.89
2018-05-14T00:35:10.512Z,93370.87
2018-05-14T00:37:38.173Z,93369.59
2018-05-14T00:40:05.782Z,93371.30
2018-05-14T00:42:33.482Z,93367.77
2018-05-14T00:45:01.154Z,93371.03
2018-05-14T00:47:28.811Z,93367.64
2018-05-14T00:49:56.430Z,93370.97
2018-05-14T00:52:24.086Z,93362.13
2018-05-14T00:55:03.421Z,93370.33
2018-05-14T00:57:31.038Z,93375.13
2018-05-14T00:59:58.643Z,93374.79
2018-05-14T01:02:26.276Z,93372.90
2018-05-14T01:04:53.973Z,93372.45
2018-05-14T01:07:21.632Z,93371.16
2018-05-14T01:09:50.176Z,93375.64
2018-05-14T01:12:17.826Z,93373.91
2018-05-14T01:14:45.455Z,93380.94
2018-05-14T01:17:13.149Z,93377.52
2018-05-14T01:19:40.792Z,93376.63
2018-05-14T01:22:08.441Z,93381.98
2018-05-14T01:24:36.155Z,93375.02
2018-05-14T01:27:03.818Z,93384.19
2018-05-14T01:29:31.500Z,93374.73
2018-05-14T01:31:59.177Z,93381.86
2018-05-14T01:34:26.805Z,93381.52
2018-05-14T01:36:54.621Z,93373.83
2018-05-14T01:39:22.559Z,93371.75
2018-05-14T01:41:50.177Z,93374.62
2018-05-14T01:44:17.857Z,93379.22
2018-05-14T01:46:45.622Z,93372.84
2018-05-14T01:49:13.328Z,93372.42
2018-05-14T01:51:41.144Z,93378.05
2018-05-14T01:54:08.848Z,93373.21
2018-05-14T01:56:36.438Z,93374.61
2018-05-14T01:59:04.087Z,93371.11
2018-05-14T02:01:31.841Z,93370.20
2018-05-14T02:03:59.780Z,93367.52
2018-05-14T02:06:27.392Z,93370.14
2018-05-14T02:08:55.058Z,93376.56
2018-05-14T02:11:22.661Z,93368.16
2018-05-14T02:13:50.316Z,93373.41
2018-05-14T02:16:18.001Z,93371.78
2018-05-14T02:18:45.663Z,93371.50
2018-05-14T02:21:13.316Z,93375.66
2018-05-14T02:23:40.991Z,93375.52
2018-05-14T02:26:08.633Z,93369.87
2018-05-14T02:28:36.314Z,93374.55
2018-05-14T02:31:04.064Z,93370.41
2018-05-14T02:33:31.706Z,93369.07
2018-05-14T02:35:59.349Z,93373.26
2018-05-14T02:38:27.023Z,93375.43
2018-05-14T02:40:54.763Z,93375.17
2018-05-14T02:43:22.437Z,93375.05
2018-05-14T02:45:50.046Z,93372.20
2018-05-14T02:48:17.712Z,93377.88
2018-05-14T02:50:45.329Z,93378.59
2018-05-14T02:53:12.963Z,93379.34
2018-05-14T02:55:40.592Z,93381.85
2018-05-14T02:58:08.184Z,93387.16
2018-05-14T03:00:35.860Z,93383.45
2018-05-14T03:03:03.599Z,93390.40
2018-05-14T03:05:31.271Z,93390.97
2018-05-14T03:07:58.872Z,93388.34
2018-05-14T03:10:26.523Z,93383.63
2018-05-14T03:12:55.397Z,93383.59
2018-05-14T03:15:23.068Z,93379.27
2018-05-14T03:17:50.684Z,93384.70
2018-05-14T03:20:18.409Z,93383.22
2018-05-14T03:22:46.134Z,93388.09
2018-05-14T03:25:13.752Z,93387.55
2018-05-14T03:27:41.459Z,93387.50
2018-05-14T03:30:09.125Z,93391.11
2018-05-14T03:32:36.783Z,93390.94
2018-05-14T03:35:04.597Z,93390.92
2018-05-14T03:37:32.242Z,93389.73
2018-05-14T03:39:59.892Z,93383.63
2018-05-14T03:42:27.538Z,93389.56
2018-05-14T03:44:55.286Z,93388.36
2018-05-14T03:47:22.935Z,93393.13
2018-05-14T03:49:50.536Z,93398.45
2018-05-14T03:52:18.147Z,93396.90
2018-05-14T03:54:45.803Z,93397.40
2018-05-14T03:57:13.383Z,93403.40
2018-05-14T03:59:52.859Z,93406.11
2018-05-14T04:02:44.006Z,93404.66
2018-05-14T04:05:19.230Z,93403.37
2018-05-14T04:07:46.865Z,93399.48
2018-05-14T04:10:14.628Z,93407.66
2018-05-14T04:12:42.262Z,93403.49
2018-05-14T04:15:09.939Z,93409.30
2018-05-14T04:17:37.524Z,93407.09
2018-05-14T04:20:05.165Z,93409.00
2018-05-14T04:22:32.832Z,93415.48
2018-05-14T04:25:00.467Z,93413.86
2018-05-14T04:27:28.211Z,93410.84
2018-05-14T04:29:55.893Z,93411.78
2018-05-14T04:32:23.555Z,93405.93
2018-05-14T04:34:51.199Z,93413.53
2018-05-14T04:37:18.821Z,93409.59
2018-05-14T04:39:46.450Z,93415.13
2018-05-14T04:42:14.143Z,93417.66
2018-05-14T04:44:41.853Z,93421.91
2018-05-14T04:47:09.507Z,93421.57
2018-05-14T04:49:37.292Z,93421.88
2018-05-14T04:52:04.977Z,93419.59
2018-05-14T04:54:33.305Z,93423.78
2018-05-14T04:57:00.949Z,93421.95
2018-05-14T04:59:28.625Z,93423.49
2018-05-14T05:01:56.239Z,93418.88
2018-05-14T05:04:23.920Z,93417.93
2018-05-14T05:06:51.540Z,93417.92
2018-05-14T05:09:19.179Z,93418.91
2018-05-14T05:11:46.824Z,93420.41
2018-05-14T05:14:14.497Z,93417.89
2018-05-14T05:16:42.097Z,93423.95
2018-05-14T05:19:09.699Z,93418.39
2018-05-14T05:21:37.434Z,93417.55
2018-05-14T05:24:05.030Z,93413.29
2018-05-14T05:26:32.704Z,93419.22
2018-05-14T05:29:00.733Z,93415.15
2018-05-14T05:31:28.389Z,93418.59
2018-05-14T05:33:56.175Z,93415.27
2018-05-14T05:36:23.860Z,93422.36
2018-05-14T05:38:51.647Z,93421.07
2018-05-14T05:41:19.275Z,93419.59
2018-05-14T05:43:46.955Z,93415.73
2018-05-14T05:46:14.632Z,93411.99
2018-05-14T05:48:42.251Z,93413.50
2018-05-14T05:51:09.905Z,93406.88
2018-05-14T05:53:37.604Z,93411.98
2018-05-14T05:56:05.938Z,93408.73
2018-05-14T05:58:33.585Z,93410.78
2018-05-14T06:01:01.249Z,93408.87
2018-05-14T06:03:29.158Z,93404.91
2018-05-14T06:05:56.774Z,93403.38
2018-05-14T06:08:24.401Z,93398.68
2018-05-14T06:10:52.024Z,93403.02
2018-05-14T06:13:19.689Z,93400.35
2018-05-14T06:15:47.343Z,93409.25
2018-05-14T06:18:15.022Z,93397.77
2018-05-14T06:20:42.720Z,93393.73
2018-05-14T06:23:10.371Z,93392.42
2018-05-14T06:25:37.978Z,93396.45
2018-05-14T06:28:05.621Z,93388.98
2018-05-14T06:30:34.479Z,93393.87
2018-05-14T06:33:02.843Z,93390.81
2018-05-14T06:35:30.592Z,93387.65
2018-05-14T06:37:58.260Z,93393.24
2018-05-14T06:40:25.871Z,93387.41
2018-05-14T06:42:53.522Z,93387.61
2018-05-14T06:45:21.183Z,93388.88
2018-05-14T06:47:48.806Z,93391.35
2018-05-14T06:50:16.482Z,93382.78
2018-05-14T06:52:44.199Z,93384.25
2018-05-14T06:55:11.912Z,93378.07
2018-05-14T06:57:39.560Z,93376.98
2018-05-14T07:00:07.239Z,93377.37
2018-05-14T07:02:34.874Z,93371.36
2018-05-14T07:05:02.495Z,93365.98
2018-05-14T07:07:30.159Z,93360.81
2018-05-14T07:09:57.746Z,93367.20
2018-05-14T07:12:25.412Z,93363.95
2018-05-14T07:14:53.067Z,93369.44
2018-05-14T07:17:20.693Z,93369.48
2018-05-14T07:19:48.344Z,93362.50
2018-05-14T07:22:15.999Z,93360.38
2018-05-14T07:24:43.704Z,93359.84
2018-05-14T07:27:11.337Z,93353.45
2018-05-14T07:29:38.955Z,93358.84
2018-05-14T07:32:06.624Z,93352.52
2018-05-14T07:34:34.288Z,93353.25
2018-05-14T07:37:01.933Z,93347.74
2018-05-14T07:39:29.602Z,93352.95
2018-05-14T07:41:57.225Z,93342.14
2018-05-14T07:44:24.839Z,93349.42
2018-05-14T07:46:52.523Z,93351.64
2018-05-14T07:49:20.198Z,93343.69
2018-05-14T07:51:47.894Z,93349.70
2018-05-14T07:54:15.492Z,93343.83
2018-05-14T07:56:43.149Z,93346.02
2018-05-14T07:59:10.760Z,93352.19
2018-05-14T08:01:38.429Z,93339.06
2018-05-14T08:04:06.586Z,93343.73
2018-05-14T08:06:34.290Z,93341.31
2018-05-14T08:09:01.931Z,93342.14
2018-05-14T08:11:29.927Z,93344.33
2018-05-14T08:13:57.631Z,93343.02
2018-05-14T08:16:25.269Z,93339.14
2018-05-14T08:18:53.137Z,93345.48
2018-05-14T08:21:20.988Z,93336.84
2018-05-14T08:23:48.871Z,93342.41
2018-05-14T08:26:17.251Z,93346.21
2018-05-14T08:28:45.171Z,93342.98
2018-05-14T08:31:13.133Z,93340.91
2018-05-14T08:33:40.835Z,93340.86
2018-05-14T08:36:08.828Z,93337.57
2018-05-14T08:38:37.292Z,93329.48
2018-05-14T08:41:05.213Z,93328.33
2018-05-14T08:43:33.550Z,93332.69
2018-05-14T08:46:01.302Z,93327.81
2018-05-14T08:48:30.529Z,93332.89
2018-05-14T08:50:58.381Z,93330.58
2018-05-14T08:53:26.339Z,93328.32
2018-05-14T08:55:54.168Z,93328.25
2018-05-14T08:58:21.979Z,93324.29
2018-05-14T09:00:49.873Z,93317.97
2018-05-14T09:03:17.798Z,93319.69
2018-05-14T09:05:45.635Z,93316.15
2018-05-14T09:08:13.286Z,93321.63
2018-05-14T09:10:40.912Z,93318.16
2018-05-14T09:13:09.351Z,93317.52
2018-05-14T09:15:37.140Z,93316.25
2018-05-14T09:18:05.122Z,93311.40
2018-05-14T09:20:32.877Z,93306.28
2018-05-14T09:23:00.525Z,93310.68
2018-05-14T09:25:28.835Z,93302.87
2018-05-14T09:27:56.786Z,93302.14
2018-05-14T09:30:24.482Z,93303.08
2018-05-14T09:32:53.660Z,93298.39
2018-05-14T09:35:22.594Z,93301.82
2018-05-14T09:37:53.032Z,93301.03
2018-05-14T09:40:21.520Z,93297.84
2018-05-14T09:42:49.122Z,93302.47
2018-05-14T09:45:16.774Z,93302.39
2018-05-14T09:47:44.439Z,93303.61
2018-05-14T09:50:12.094Z,93302.23
2018-05-14T09:52:39.772Z,93299.80
2018-05-14T09:55:08.415Z,93295.38
2018-05-14T09:57:36.545Z,93284.44
2018-05-14T10:00:05.275Z,93299.50
2018-05-14T10:02:33.055Z,93289.66
2018-05-14T10:05:00.674Z,93289.61
2018-05-14T10:07:28.995Z,93289.98
2018-05-14T10:09:56.585Z,93289.45
2018-05-14T10:12:24.334Z,93295.48
2018-05-14T10:14:51.948Z,93291.97
2018-05-14T10:17:19.617Z,93295.48
2018-05-14T10:19:47.363Z,93297.30
2018-05-14T10:22:16.927Z,93302.85
2018-05-14T10:24:44.873Z,93293.45
2018-05-14T10:27:12.944Z,93295.73
2018-05-14T10:29:41.070Z,93295.59
2018-05-14T10:32:09.170Z,93293.82
2018-05-14T10:34:36.937Z,93290.31
2018-05-14T10:37:04.864Z,93293.98
2018-05-14T10:39:32.621Z,93292.68
2018-05-14T10:42:00.258Z,93288.63
2018-05-14T10:44:27.948Z,93295.77
2018-05-14T10:46:55.638Z,93294.42
2018-05-14T10:49:24.300Z,93290.42
2018-05-14T10:51:51.984Z,93291.92
2018-05-14T10:54:19.806Z,93288.52
2018-05-14T10:56:47.488Z,93286.83
2018-05-14T10:59:15.460Z,93286.41
2018-05-14T11:01:43.124Z,93291.95
2018-05-14T11:04:10.808Z,93290.04
2018-05-14T11:06:38.440Z,93300.48
2018-05-14T11:09:10.179Z,93289.70
2018-05-14T11:11:37.825Z,93297.39
2018-05-14T11:14:05.573Z,93302.65
2018-05-14T11:16:33.605Z,93292.65
2018-05-14T11:19:03.127Z,93300.67
2018-05-14T11:21:30.823Z,93297.48
2018-05-14T11:23:59.587Z,93300.58
2018-05-14T11:26:28.837Z,93295.00
2018-05-14T11:28:56.831Z,93291.69
2018-05-14T11:31:24.698Z,93305.35
2018-05-14T11:33:53.243Z,93290.03
2018-05-14T11:36:20.930Z,93290.50
2018-05-14T11:38:50.235Z,93291.39
2018-05-14T11:41:18.099Z,93282.81
2018-05-14T11:43:45.815Z,93288.22
2018-05-14T11:46:13.441Z,93303.41
2018-05-14T11:48:41.065Z,93300.51
2018-05-14T11:51:08.757Z,93305.47
2018-05-14T11:53:36.396Z,93303.20
2018-05-14T11:56:04.102Z,93300.48
2018-05-14T11:58:31.767Z,93305.09
2018-05-14T12:00:59.520Z,93309.70
2018-05-14T12:03:27.255Z,93317.37
2018-05-14T12:05:55.130Z,93315.06
2018-05-14T12:08:23.064Z,93319.87
2018-05-14T12:10:50.830Z,93344.38
2018-05-14T12:13:18.868Z,93336.98
2018-05-14T12:15:46.811Z,93340.78
2018-05-14T12:18:15.575Z,93368.60
2018-05-14T12:20:43.257Z,93357.63
2018-05-14T12:23:11.399Z,93348.63
2018-05-14T12:25:39.680Z,93363.69
2018-05-14T12:28:07.652Z,93370.56
2018-05-14T12:30:36.144Z,93379.84
2018-05-14T12:33:03.805Z,93390.23
2018-05-14T12:35:31.647Z,93387.22
2018-05-14T12:38:00.268Z,93377.05
2018-05-14T12:40:28.458Z,93369.64
2018-05-14T12:42:57.915Z,93380.81
2018-05-14T12:45:25.566Z,93362.87
2018-05-14T12:47:53.222Z,93370.16
2018-05-14T12:50:20.915Z,93379.70
2018-05-14T12:52:48.658Z,93368.05
2018-05-14T12:55:17.145Z,93388.09
2018-05-14T12:57:45.379Z,93376.50
2018-05-14T13:00:13.003Z,93381.28
2018-05-14T13:02:41.209Z,93391.11
2018-05-14T13:05:09.337Z,93388.14
2018-05-14T13:07:37.558Z,93391.41
2018-05-14T13:10:06.040Z,93388.44
2018-05-14T13:12:34.915Z,93386.64
2018-05-14T13:15:05.655Z,93394.82
2018-05-14T13:17:33.369Z,93405.45
2018-05-14T13:20:01.422Z,93409.52
2018-05-14T13:22:29.765Z,93410.20
2018-05-14T13:24:57.728Z,93415.74
2018-05-14T13:27:25.618Z,93422.66
2018-05-14T13:29:53.281Z,93426.20
2018-05-14T13:32:20.995Z,93437.52
2018-05-14T13:34:49.012Z,93438.48
2018-05-14T13:37:16.879Z,93441.47
2018-05-14T13:39:44.560Z,93461.33
2018-05-14T13:42:12.238Z,93458.41
2018-05-14T13:44:40.033Z,93479.49
2018-05-14T13:47:07.624Z,93481.88
2018-05-14T13:49:35.556Z,93471.67
2018-05-14T13:52:03.269Z,93481.85
2018-05-14T13:54:31.335Z,93474.80
2018-05-14T13:56:59.508Z,93487.96
2018-05-14T13:59:28.301Z,93482.31
2018-05-14T14:01:56.343Z,93480.73
2018-05-14T14:04:24.141Z,93482.02
2018-05-14T14:06:51.918Z,93482.84
2018-05-14T14:09:19.649Z,93480.91
2018-05-14T14:11:47.380Z,93481.78
2018-05-14T14:14:15.016Z,93478.92
2018-05-14T14:16:42.731Z,93480.47
2018-05-14T14:19:10.358Z,93476.57
2018-05-14T14:21:38.077Z,93477.13
2018-05-14T14:24:06.300Z,93478.59
2018-05-14T14:26:34.217Z,93481.11
2018-05-14T14:29:02.858Z,93481.39
2018-05-14T14:31:31.071Z,93482.76
2018-05-14T14:33:59.387Z,93478.53
2018-05-14T14:36:27.940Z,93476.47
2018-05-14T14:38:55.918Z,93480.08
2018-05-14T14:41:23.970Z,93480.91
2018-05-14T14:43:53.532Z,93474.84
2018-05-14T14:46:22.418Z,93476.23
2018-05-14T14:48:50.243Z,93475.09
2018-05-14T14:51:18.190Z,93472.83
2018-05-14T14:53:45.986Z,93467.70
2018-05-14T14:56:15.116Z,93473.21
2018-05-14T14:58:43.767Z,93472.72
2018-05-14T15:01:11.464Z,93480.55
2018-05-14T15:03:39.298Z,93477.68
2018-05-14T15:06:07.108Z,93484.50
2018-05-14T15:08:35.342Z,93481.14
2018-05-14T15:11:03.421Z,93477.97
2018-05-14T15:13:31.329Z,93479.88
2018-05-14T15:15:59.260Z,93486.97
2018-05-14T15:18:27.315Z,93477.19
2018-05-14T15:20:55.351Z,93487.69
2018-05-14T15:23:23.126Z,93482.88
2018-05-14T15:25:52.352Z,93484.09
2018-05-14T15:28:20.075Z,93487.96
2018-05-14T15:30:47.886Z,93483.57
2018-05-14T15:33:16.030Z,93487.27
2018-05-14T15:35:43.673Z,93481.63
2018-05-14T15:38:11.691Z,93485.97
2018-05-14T15:40:39.365Z,93485.55
2018-05-14T15:43:07.612Z,93484.64
2018-05-14T15:45:37.669Z,93492.75
2018-05-14T15:48:05.446Z,93485.17
2018-05-14T15:50:33.365Z,93491.02
2018-05-14T15:53:01.004Z,93488.82
2018-05-14T15:55:28.777Z,93488.59
2018-05-14T15:57:56.574Z,93487.40
2018-05-14T16:00:24.225Z,93489.47
2018-05-14T16:02:52.168Z,93496.17
2018-05-14T16:05:19.822Z,93492.10
2018-05-14T16:07:47.534Z,93495.38
2018-05-14T16:10:17.056Z,93489.83
2018-05-14T16:12:45.265Z,93488.52
2018-05-14T16:15:12.974Z,93480.93
2018-05-14T16:17:40.953Z,93483.26
2018-05-14T16:20:09.017Z,93487.92
2018-05-14T16:25:04.251Z,93478.11
2018-05-14T16:27:32.352Z,93473.48
2018-05-14T16:30:00.264Z,93469.94
2018-05-14T16:32:29.644Z,93470.94
2018-05-14T16:34:57.736Z,93475.30
2018-05-14T16:37:25.934Z,93471.13
2018-05-14T16:39:53.761Z,93469.14
2018-05-14T16:42:21.566Z,93463.78
2018-05-14T16:44:50.416Z,93466.69
2018-05-14T16:47:20.180Z,93464.00
2018-05-14T16:49:48.516Z,93465.34
2018-05-14T16:52:16.401Z,93464.11
2018-05-14T16:54:44.414Z,93464.68
2018-05-14T16:57:12.241Z,93468.86
2018-05-14T16:59:40.726Z,93471.13
2018-05-14T17:02:08.739Z,93462.34
2018-05-14T17:04:36.873Z,93466.03
2018-05-14T17:07:05.763Z,93460.56
2018-05-14T17:09:33.793Z,93462.83
2018-05-14T17:12:02.120Z,93459.33
2018-05-14T17:14:30.982Z,93460.73
2018-05-14T17:16:59.077Z,93458.50
2018-05-14T17:19:27.767Z,93458.34
2018-05-14T17:21:56.411Z,93449.98
2018-05-14T17:24:24.564Z,93452.80
2018-05-14T17:26:52.570Z,93455.61
2018-05-14T17:29:20.362Z,93455.84
2018-05-14T17:31:49.861Z,93449.92
2018-05-14T17:34:18.939Z,93459.71
2018-05-14T17:36:47.890Z,93450.84
2018-05-14T17:39:17.717Z,93455.83
2018-05-14T17:41:46.376Z,93458.94
2018-05-14T17:44:14.857Z,93458.80
2018-05-14T17:46:42.947Z,93459.03
2018-05-14T17:49:13.232Z,93466.50
2018-05-14T17:51:41.535Z,93469.58
2018-05-14T17:54:10.163Z,93467.81
2018-05-14T17:56:42.165Z,93465.45
2018-05-14T17:59:18.086Z,93464.96
2018-05-14T18:01:53.036Z,93465.72
2018-05-14T18:04:25.811Z,93464.78
2018-05-14T18:06:56.904Z,93462.21
2018-05-14T18:09:27.106Z,93460.87
2018-05-14T18:11:57.404Z,93465.08
2018-05-14T18:14:27.589Z,93469.64
2018-05-14T18:16:57.171Z,93465.64
2018-05-14T18:19:26.590Z,93463.67
2018-05-14T18:22:01.573Z,93474.30
2018-05-14T18:24:29.716Z,93477.06
2018-05-14T18:26:58.551Z,93471.55
2018-05-14T18:29:32.158Z,93472.43
2018-05-14T18:32:05.275Z,93472.61
2018-05-14T18:34:40.387Z,93477.32
2018-05-14T18:37:08.807Z,93480.85
2018-05-14T18:39:38.631Z,93480.06
2018-05-14T18:42:09.026Z,93480.73
2018-05-14T18:44:38.797Z,93479.55
2018-05-14T18:47:08.848Z,93485.86
2018-05-14T18:49:37.797Z,93485.73
2018-05-14T18:52:05.844Z,93488.71
2018-05-14T18:54:33.729Z,93486.77
2018-05-14T18:57:01.982Z,93493.47
2018-05-14T18:59:30.807Z,93491.48
2018-05-14T19:02:00.010Z,93491.62
2018-05-14T19:04:30.913Z,93494.11
2018-05-14T19:06:59.435Z,93492.66
2018-05-14T19:09:28.900Z,93492.02
2018-05-14T19:11:57.298Z,93498.81
2018-05-14T19:14:25.648Z,93497.12
2018-05-14T19:16:59.555Z,93496.06
2018-05-14T19:19:27.802Z,93502.48
2018-05-14T19:21:55.858Z,93504.05
2018-05-14T19:24:24.132Z,93501.69
2018-05-14T19:26:52.210Z,93501.45
2018-05-14T19:29:26.513Z,93502.75
2018-05-14T19:31:54.383Z,93506.16
2018-05-14T19:34:28.303Z,93510.59
2018-05-14T19:36:56.374Z,93511.14
2018-05-14T19:39:31.136Z,93503.55
2018-05-14T19:41:58.868Z,93501.96
2018-05-14T19:44:26.943Z,93499.48
2018-05-14T19:46:54.985Z,93490.86
2018-05-14T19:49:23.392Z,93497.00
2018-05-14T19:51:51.230Z,93498.70
2018-05-14T19:54:19.235Z,93493.58
2018-05-14T19:56:47.486Z,93497.12
2018-05-14T19:59:16.253Z,93492.02
2018-05-14T20:01:45.294Z,93494.47
2018-05-14T20:04:13.330Z,93493.84
2018-05-14T20:06:41.110Z,93492.94
2018-05-14T20:09:09.269Z,93490.56
2018-05-14T20:11:37.163Z,93486.11
2018-05-14T20:14:05.248Z,93483.51
2018-05-14T20:16:32.915Z,93479.18
2018-05-14T20:19:00.646Z,93483.59
2018-05-14T20:21:28.835Z,93479.40
2018-05-14T20:23:56.935Z,93482.28
2018-05-14T20:26:25.966Z,93486.25
2018-05-14T20:28:53.778Z,93486.77
2018-05-14T20:31:21.572Z,93489.34
2018-05-14T20:33:49.502Z,93485.94
2018-05-14T20:36:17.244Z,93488.16
2018-05-14T20:38:45.569Z,93490.13
2018-05-14T20:41:13.327Z,93487.61
2018-05-14T20:43:41.207Z,93488.92
2018-05-14T20:46:09.252Z,93493.11
2018-05-14T20:48:36.968Z,93484.34
2018-05-14T20:51:05.365Z,93488.39
2018-05-14T20:53:33.241Z,93487.73
2018-05-14T20:56:01.021Z,93481.08
2018-05-14T20:58:28.778Z,93476.26
2018-05-14T21:00:56.393Z,93478.34
2018-05-14T21:03:24.112Z,93475.54
2018-05-14T21:05:51.770Z,93479.01
2018-05-14T21:08:19.509Z,93480.02
2018-05-14T21:10:47.301Z,93478.98
2018-05-14T21:13:15.144Z,93472.48
2018-05-14T21:15:43.428Z,93477.45
2018-05-14T21:18:11.086Z,93472.34
2018-05-14T21:20:38.781Z,93473.11
2018-05-14T21:23:06.535Z,93469.33
2018-05-14T21:25:34.406Z,93471.82
2018-05-14T21:28:02.169Z,93467.09
2018-05-14T21:30:30.444Z,93468.37
2018-05-14T21:32:58.191Z,93467.88
2018-05-14T21:35:25.880Z,93467.98
2018-05-14T21:37:53.506Z,93464.86
2018-05-14T21:40:21.199Z,93470.81
2018-05-14T21:42:48.955Z,93466.80
2018-05-14T21:45:16.611Z,93469.11
2018-05-14T21:47:44.235Z,93461.80
2018-05-14T21:50:12.148Z,93457.62
2018-05-14T21:52:40.024Z,93463.77
2018-05-14T21:55:08.510Z,93461.00
2018-05-14T21:57:36.150Z,93464.25
2018-05-14T22:00:05.572Z,93458.36
2018-05-14T22:02:33.249Z,93456.92
2018-05-14T22:05:00.833Z,93456.83
2018-05-14T22:07:28.968Z,93449.59
2018-05-14T22:09:56.629Z,93447.68
2018-05-14T22:12:24.259Z,93448.55
2018-05-14T22:14:52.039Z,93445.86
2018-05-14T22:17:20.310Z,93437.77
2018-05-14T22:19:47.977Z,93442.42
2018-05-14T22:22:15.658Z,93434.06
2018-05-14T22:24:43.290Z,93438.59
2018-05-14T22:27:11.775Z,93439.75
2018-05-14T22:29:39.554Z,93437.77
2018-05-14T22:32:07.195Z,93433.25
2018-05-14T22:34:35.055Z,93431.72
2018-05-14T22:37:02.747Z,93432.98
2018-05-14T22:39:30.421Z,93436.34
2018-05-14T22:41:58.076Z,93435.30
2018-05-14T22:44:26.168Z,93431.52
2018-05-14T22:46:53.916Z,93428.03
2018-05-14T22:49:22.405Z,93431.14
2018-05-14T22:51:50.083Z,93430.67
2018-05-14T22:54:29.662Z,93431.47
2018-05-14T22:56:57.365Z,93432.38
2018-05-14T22:59:25.058Z,93429.59
2018-05-14T23:01:53.520Z,93431.80
2018-05-14T23:04:21.184Z,93428.41
2018-05-14T23:06:50.028Z,93425.80
2018-05-14T23:09:17.724Z,93426.94
2018-05-14T23:11:46.007Z,93431.87
2018-05-14T23:14:16.132Z,93425.41
2018-05-14T23:16:43.978Z,93424.95
2018-05-14T23:19:12.067Z,93418.91
2018-05-14T23:21:40.017Z,93420.22
2018-05-14T23:24:08.591Z,93420.87
2018-05-14T23:26:36.499Z,93416.98
2018-05-14T23:29:04.768Z,93420.66
2018-05-14T23:31:32.424Z,93408.28
2018-05-14T23:34:00.747Z,93411.00
2018-05-14T23:36:29.713Z,93408.45
2018-05-14T23:38:57.940Z,93411.80
2018-05-14T23:41:25.713Z,93408.78
2018-05-14T23:43:53.355Z,93410.86
2018-05-14T23:46:21.517Z,93403.72
2018-05-14T23:48:49.163Z,93401.43
2018-05-14T23:51:16.818Z,93399.87
2018-05-14T23:53:45.125Z,93398.52
2018-05-14T23:56:12.925Z,93396.95
2018-05-14T23:58:40.526Z,93396.05
